Time;durP1;ratioP1;P1;durP2;ratioP2;P2;SDS_P1;SDS_P2;PMS_P1;PMS_P2;Temp;Humidity;BMP_temperature;BMP_pressure;BME280_temperature;BME280_humidity;BME280_pressure;Samples;Min_cycle;Max_cycle;Signal;HPM_P1;HPM_P2
2021/09/27 00:00:17;;;;;;;16.10;14.70;;;17.10;70.10;;;;;;5011560;28;20506;-89
2021/09/27 00:02:43;;;;;;;15.70;14.30;;;17.20;70.20;;;;;;5013152;28;20602;-89
2021/09/27 00:05:13;;;;;;;14.77;13.47;;;17.10;69.60;;;;;;5013260;28;20456;-88
2021/09/27 00:07:39;;;;;;;14.87;13.57;;;17.10;70.20;;;;;;5013364;28;20551;-89
2021/09/27 00:10:07;;;;;;;15.00;13.70;;;17.10;70.10;;;;;;5012866;28;20425;-89
2021/09/27 00:12:33;;;;;;;15.00;13.60;;;17.10;69.90;;;;;;5012878;28;20920;-89
2021/09/27 00:15:00;;;;;;;15.40;14.20;;;17.10;69.80;;;;;;5012864;28;20424;-89
2021/09/27 00:17:26;;;;;;;13.93;12.63;;;17.10;70.00;;;;;;5012617;28;20192;-89
2021/09/27 00:19:51;;;;;;;14.30;13.03;;;17.10;70.20;;;;;;5012632;28;20511;-90
2021/09/27 00:22:17;;;;;;;13.30;12.10;;;17.10;70.40;;;;;;5012709;28;20591;-90
2021/09/27 00:24:43;;;;;;;15.63;14.30;;;17.10;71.00;;;;;;5012598;28;20181;-89
2021/09/27 00:27:09;;;;;;;12.73;11.63;;;17.00;70.70;;;;;;5012710;28;20177;-89
2021/09/27 00:29:35;;;;;;;16.37;14.97;;;17.00;71.10;;;;;;5012614;28;20427;-89
2021/09/27 00:32:00;;;;;;;14.00;12.77;;;17.00;71.50;;;;;;5012654;28;20455;-88
2021/09/27 00:34:26;;;;;;;15.50;14.00;;;17.00;71.50;;;;;;5012487;28;20182;-89
2021/09/27 00:36:52;;;;;;;14.57;13.47;;;17.00;70.90;;;;;;5012328;28;20650;-89
2021/09/27 00:39:18;;;;;;;15.20;14.00;;;16.90;71.00;;;;;;5012267;28;20189;-89
2021/09/27 00:41:44;;;;;;;15.63;14.33;;;16.90;71.40;;;;;;5012386;28;20614;-89
2021/09/27 00:44:12;;;;;;;15.30;14.10;;;16.90;71.90;;;;;;5012261;28;20427;-89
2021/09/27 00:46:37;;;;;;;17.30;15.70;;;16.90;71.50;;;;;;5012024;28;20432;-89
2021/09/27 00:49:04;;;;;;;14.27;13.10;;;16.80;71.30;;;;;;5012191;28;20792;-89
2021/09/27 00:51:36;;;;;;;14.90;13.70;;;16.80;72.00;;;;;;5012144;28;20219;-89
2021/09/27 00:54:09;;;;;;;15.53;14.23;;;16.80;72.20;;;;;;5012107;28;20424;-89
2021/09/27 00:56:42;;;;;;;16.20;14.70;;;16.70;72.80;;;;;;5012126;28;20431;-89
2021/09/27 00:59:08;;;;;;;15.20;13.93;;;16.70;73.50;;;;;;5011487;28;20515;-89
2021/09/27 01:01:35;;;;;;;17.27;15.77;;;16.70;73.50;;;;;;5011885;28;21056;-89
2021/09/27 01:04:01;;;;;;;14.47;13.17;;;16.70;73.50;;;;;;5011828;28;20413;-89
2021/09/27 01:06:39;;;;;;;17.40;15.83;;;16.70;73.00;;;;;;5011903;28;20558;-87
2021/09/27 01:09:24;;;;;;;15.17;13.73;;;16.70;72.60;;;;;;5011904;28;20452;-90
2021/09/27 01:12:09;;;;;;;18.00;16.37;;;16.60;73.20;;;;;;5012144;28;20424;-89
2021/09/27 01:14:51;;;;;;;17.23;15.83;;;16.60;74.10;;;;;;5011826;28;20435;-90
2021/09/27 01:17:42;;;;;;;15.40;13.80;;;16.60;74.00;;;;;;5011852;28;20412;-89
2021/09/27 01:20:21;;;;;;;15.27;13.87;;;16.60;73.40;;;;;;5011676;28;20456;-90
2021/09/27 01:23:24;;;;;;;17.27;15.67;;;16.60;73.90;;;;;;5011604;28;20420;-89
2021/09/27 01:25:58;;;;;;;15.20;13.90;;;16.60;74.10;;;;;;5013167;28;20408;-89
2021/09/27 01:28:50;;;;;;;15.10;13.83;;;16.60;74.00;;;;;;5011834;28;20490;-89
2021/09/27 01:31:53;;;;;;;16.10;14.60;;;16.60;73.70;;;;;;4993593;28;20783;-89
2021/09/27 01:34:40;;;;;;;16.10;14.70;;;16.60;73.90;;;;;;5012932;28;20400;-89
2021/09/27 01:37:46;;;;;;;16.40;14.93;;;16.60;73.90;;;;;;5011456;28;20840;-89
2021/09/27 01:40:30;;;;;;;15.53;14.13;;;16.60;73.50;;;;;;5011225;28;20863;-89
2021/09/27 01:43:21;;;;;;;14.77;13.37;;;16.70;72.70;;;;;;5011954;28;20415;-89
2021/09/27 01:46:17;;;;;;;15.07;13.67;;;16.60;72.50;;;;;;5011358;28;20416;-89
2021/09/27 01:48:57;;;;;;;13.93;12.70;;;16.70;72.90;;;;;;5011132;28;20420;-89
2021/09/27 01:52:02;;;;;;;16.10;14.60;;;16.70;72.20;;;;;;5011210;28;20416;-90
2021/09/27 01:54:42;;;;;;;16.43;14.73;;;16.80;72.00;;;;;;5011196;28;20427;-89
2021/09/27 01:57:14;;;;;;;15.23;13.83;;;16.80;71.40;;;;;;5011829;28;20430;-89
2021/09/27 02:00:03;;;;;;;14.73;13.63;;;16.80;71.60;;;;;;5011452;28;20417;-90
2021/09/27 02:02:35;;;;;;;15.40;14.10;;;16.80;70.60;;;;;;5005679;28;20425;-90
2021/09/27 02:05:38;;;;;;;15.70;14.50;;;16.80;70.30;;;;;;5011079;28;20452;-88
2021/09/27 02:08:22;;;;;;;14.70;13.30;;;16.80;69.60;;;;;;5010909;28;20473;-89
2021/09/27 02:11:14;;;;;;;15.60;14.10;;;16.70;70.00;;;;;;5011062;28;20413;-89
2021/09/27 02:13:49;;;;;;;14.70;13.50;;;16.70;69.70;;;;;;5009556;28;20773;-88
2021/09/27 02:16:42;;;;;;;14.60;13.40;;;16.60;70.50;;;;;;5015044;28;20416;-90
2021/09/27 02:19:32;;;;;;;15.33;14.10;;;16.60;70.10;;;;;;5014846;28;20952;-88
2021/09/27 02:22:22;;;;;;;16.10;14.80;;;16.60;71.00;;;;;;5014992;28;20460;-88
2021/09/27 02:24:53;;;;;;;17.23;15.67;;;16.60;71.20;;;;;;5014847;28;20515;-88
2021/09/27 02:27:18;;;;;;;16.70;15.13;;;16.60;71.30;;;;;;5014813;28;20776;-88
2021/09/27 02:29:44;;;;;;;15.27;13.97;;;16.60;71.00;;;;;;5014605;28;20482;-89
2021/09/27 02:32:13;;;;;;;14.30;13.20;;;16.60;70.70;;;;;;5014834;28;20416;-89
2021/09/27 02:34:56;;;;;;;16.20;14.80;;;16.60;70.60;;;;;;5014583;28;20204;-89
2021/09/27 02:37:39;;;;;;;15.03;13.83;;;16.70;69.90;;;;;;5014666;28;20477;-89
2021/09/27 02:40:26;;;;;;;14.80;13.60;;;16.70;69.30;;;;;;5014454;28;20505;-89
2021/09/27 02:43:00;;;;;;;14.83;13.47;;;16.70;69.30;;;;;;5014755;28;20416;-89
2021/09/27 02:45:28;;;;;;;15.10;13.90;;;16.70;69.80;;;;;;5014407;28;20454;-89
2021/09/27 02:48:28;;;;;;;13.83;12.63;;;16.70;69.90;;;;;;5014343;28;20412;-88
2021/09/27 02:50:55;;;;;;;14.37;13.27;;;16.70;68.50;;;;;;5014394;28;20506;-88
2021/09/27 02:53:22;;;;;;;11.33;10.23;;;16.70;69.00;;;;;;5015648;28;20435;-89
2021/09/27 02:56:25;;;;;;;14.60;13.30;;;16.60;68.10;;;;;;5014449;28;20419;-89
2021/09/27 02:59:02;;;;;;;14.47;13.40;;;16.60;68.50;;;;;;5014049;28;20422;-89
2021/09/27 03:01:43;;;;;;;14.00;12.90;;;16.60;68.80;;;;;;5014194;28;20463;-89
2021/09/27 03:04:14;;;;;;;15.27;14.10;;;16.60;69.80;;;;;;5014114;28;20455;-89
2021/09/27 03:06:48;;;;;;;13.20;12.00;;;16.60;69.30;;;;;;5014088;28;20500;-89
2021/09/27 03:09:57;;;;;;;14.00;12.80;;;16.70;69.70;;;;;;5013945;28;20430;-89
2021/09/27 03:12:35;;;;;;;14.47;13.23;;;16.70;69.70;;;;;;5014183;28;20932;-89
2021/09/27 03:15:15;;;;;;;13.83;12.63;;;16.70;68.60;;;;;;5013926;28;20834;-89
2021/09/27 03:17:59;;;;;;;15.20;13.33;;;16.70;68.60;;;;;;5013813;28;20416;-89
2021/09/27 03:20:34;;;;;;;14.37;13.20;;;16.70;68.90;;;;;;5013991;28;20561;-89
2021/09/27 03:23:21;;;;;;;14.10;13.00;;;16.70;68.70;;;;;;5013522;28;20426;-89
2021/09/27 03:25:58;;;;;;;16.07;14.50;;;16.70;68.60;;;;;;5013629;28;20435;-89
2021/09/27 03:28:31;;;;;;;14.17;12.97;;;16.70;68.80;;;;;;5014888;28;20458;-89
2021/09/27 03:31:21;;;;;;;14.37;13.17;;;16.70;68.30;;;;;;5014875;28;20413;-89
2021/09/27 03:34:14;;;;;;;15.10;13.70;;;16.70;67.50;;;;;;5013701;28;20452;-88
2021/09/27 03:36:55;;;;;;;13.30;12.20;;;16.70;68.00;;;;;;5013438;28;20408;-89
2021/09/27 03:39:37;;;;;;;14.97;13.63;;;16.70;67.60;;;;;;5007385;28;20784;-89
2021/09/27 03:42:37;;;;;;;14.10;12.97;;;16.70;68.70;;;;;;5018649;28;20547;-90
2021/09/27 03:45:07;;;;;;;14.83;13.63;;;16.70;68.00;;;;;;4997142;28;20507;-88
2021/09/27 03:47:51;;;;;;;14.00;12.90;;;16.70;68.30;;;;;;5033729;28;20919;-88
2021/09/27 03:50:28;;;;;;;15.03;13.83;;;16.70;68.70;;;;;;5033721;28;20414;-87
2021/09/27 03:52:59;;;;;;;14.00;12.80;;;16.70;68.20;;;;;;5033561;28;20435;-88
2021/09/27 03:55:38;;;;;;;14.73;13.53;;;16.70;67.50;;;;;;5033523;28;20422;-89
2021/09/27 03:58:12;;;;;;;14.30;13.10;;;16.70;67.70;;;;;;5033394;28;20767;-86
2021/09/27 04:01:10;;;;;;;14.63;13.13;;;16.70;67.50;;;;;;5033412;28;20454;-85
2021/09/27 04:04:00;;;;;;;14.30;13.00;;;16.70;67.50;;;;;;5016460;28;20426;-88
2021/09/27 04:06:47;;;;;;;13.13;12.03;;;16.70;66.90;;;;;;5033340;28;20396;-88
2021/09/27 04:09:31;;;;;;;14.10;12.97;;;16.70;67.50;;;;;;5034739;28;20452;-87
2021/09/27 04:12:05;;;;;;;13.70;12.70;;;16.70;67.50;;;;;;5033195;28;20415;-87
2021/09/27 04:14:30;;;;;;;13.20;12.10;;;16.80;67.90;;;;;;5023850;28;20768;-84
2021/09/27 04:17:31;;;;;;;14.40;13.10;;;16.70;67.50;;;;;;5013046;28;20507;-86
2021/09/27 04:20:12;;;;;;;12.97;11.97;;;16.70;67.50;;;;;;5011201;28;20208;-84
2021/09/27 04:22:41;;;;;;;14.53;13.33;;;16.80;67.60;;;;;;5013531;28;20463;-84
2021/09/27 04:25:35;;;;;;;14.00;12.67;;;16.70;67.50;;;;;;5013345;28;20420;-84
2021/09/27 04:28:12;;;;;;;14.00;12.90;;;16.80;67.60;;;;;;5024383;28;20495;-83
2021/09/27 04:31:06;;;;;;;13.07;11.90;;;16.70;67.00;;;;;;5013290;28;20969;-85
2021/09/27 04:34:07;;;;;;;13.93;12.83;;;16.70;67.50;;;;;;5013038;28;20778;-83
2021/09/27 04:36:37;;;;;;;13.90;12.60;;;16.70;67.20;;;;;;5012571;28;20511;-83
2021/09/27 04:39:12;;;;;;;13.43;12.30;;;16.60;67.40;;;;;;5012919;28;20416;-84
2021/09/27 04:41:56;;;;;;;14.40;13.20;;;16.60;67.40;;;;;;5008815;28;20982;-86
2021/09/27 04:45:02;;;;;;;13.83;12.73;;;16.60;67.40;;;;;;5025504;28;20508;-87
2021/09/27 04:47:57;;;;;;;14.73;13.43;;;16.60;68.10;;;;;;5012536;28;20523;-87
2021/09/27 04:50:45;;;;;;;14.97;13.57;;;16.50;67.80;;;;;;4991009;28;20428;-81
2021/09/27 04:53:30;;;;;;;13.60;12.50;;;16.50;68.00;;;;;;5011961;28;20443;-81
2021/09/27 04:56:03;;;;;;;14.60;13.40;;;16.40;69.00;;;;;;5012026;28;20943;-81
2021/09/27 04:59:06;;;;;;;14.90;13.40;;;16.40;69.20;;;;;;5011090;28;20428;-80
2021/09/27 05:01:50;;;;;;;15.53;14.13;;;16.30;69.50;;;;;;5012133;28;20464;-81
2021/09/27 05:04:34;;;;;;;14.40;13.30;;;16.30;70.60;;;;;;5010267;28;20438;-82
2021/09/27 05:07:00;;;;;;;15.00;13.80;;;16.30;70.00;;;;;;5011983;28;20417;-80
2021/09/27 05:10:04;;;;;;;14.00;12.80;;;16.30;70.20;;;;;;5011683;28;20408;-81
2021/09/27 05:12:52;;;;;;;14.30;13.20;;;16.30;70.80;;;;;;5009542;28;20196;-81
2021/09/27 05:15:37;;;;;;;19.10;16.93;;;16.20;70.80;;;;;;5011543;28;20434;-81
2021/09/27 05:18:23;;;;;;;17.57;15.97;;;16.20;70.70;;;;;;5011378;28;20436;-81
2021/09/27 05:21:19;;;;;;;16.50;15.10;;;16.10;70.20;;;;;;5011269;28;20821;-80
2021/09/27 05:24:14;;;;;;;14.30;13.00;;;16.10;70.70;;;;;;5011789;28;21000;-80
2021/09/27 05:27:09;;;;;;;17.30;14.50;;;16.10;70.70;;;;;;5010841;28;20555;-81
2021/09/27 05:29:59;;;;;;;15.63;13.90;;;16.10;70.20;;;;;;5012718;28;20408;-80
2021/09/27 05:32:59;;;;;;;15.87;14.47;;;16.10;70.10;;;;;;5011331;28;20423;-79
2021/09/27 05:35:54;;;;;;;15.40;13.80;;;16.10;70.00;;;;;;5010940;28;20412;-81
2021/09/27 05:38:43;;;;;;;15.20;13.80;;;16.10;70.80;;;;;;5014902;28;20422;-79
2021/09/27 05:41:48;;;;;;;14.10;12.90;;;16.00;70.40;;;;;;5003089;28;20467;-81
2021/09/27 05:44:31;;;;;;;14.20;13.07;;;16.00;70.70;;;;;;5014465;28;20897;-81
2021/09/27 05:47:43;;;;;;;16.70;15.10;;;15.90;71.20;;;;;;5022792;28;20416;-81
2021/09/27 05:50:12;;;;;;;15.00;13.70;;;15.90;71.40;;;;;;5003577;28;20475;-81
2021/09/27 05:52:43;;;;;;;15.60;14.20;;;15.90;71.50;;;;;;5011488;28;20441;-81
2021/09/27 05:55:44;;;;;;;15.57;13.97;;;15.90;71.80;;;;;;5002349;28;20425;-81
2021/09/27 05:58:29;;;;;;;15.03;13.73;;;16.00;71.10;;;;;;4994892;28;20859;-81
2021/09/27 06:01:01;;;;;;;14.90;13.60;;;15.90;71.50;;;;;;5007743;28;20555;-81
2021/09/27 06:03:34;;;;;;;16.53;15.13;;;15.90;72.20;;;;;;5015380;28;20430;-82
2021/09/27 06:06:09;;;;;;;15.07;13.70;;;15.90;72.10;;;;;;5024439;28;20428;-81
2021/09/27 06:08:45;;;;;;;15.93;14.53;;;15.90;71.50;;;;;;5024193;28;20935;-81
2021/09/27 06:11:36;;;;;;;15.80;14.40;;;15.90;72.10;;;;;;5026720;28;20467;-82
2021/09/27 06:14:03;;;;;;;14.97;13.57;;;16.00;72.50;;;;;;5015222;28;20519;-82
2021/09/27 06:16:45;;;;;;;16.10;12.70;;;16.00;69.90;;;;;;5014117;28;20764;-81
2021/09/27 06:19:19;;;;;;;15.30;13.80;;;16.10;70.40;;;;;;5014623;28;20431;-80
2021/09/27 06:21:48;;;;;;;13.93;12.73;;;16.10;70.90;;;;;;5026754;28;20463;-81
2021/09/27 06:24:58;;;;;;;13.83;12.57;;;16.10;71.20;;;;;;5007536;28;20432;-80
2021/09/27 06:27:56;;;;;;;14.37;12.90;;;16.10;70.80;;;;;;4986142;28;20427;-82
2021/09/27 06:30:29;;;;;;;15.43;13.93;;;16.10;70.30;;;;;;5010996;28;20439;-81
2021/09/27 06:32:54;;;;;;;15.10;13.50;;;16.20;70.70;;;;;;5010829;28;20423;-81
2021/09/27 06:35:24;;;;;;;14.90;13.60;;;16.20;70.80;;;;;;5010515;28;20474;-80
2021/09/27 06:37:50;;;;;;;14.33;13.03;;;16.20;69.90;;;;;;5014393;28;20203;-80
2021/09/27 06:40:17;;;;;;;16.57;12.57;;;16.20;69.70;;;;;;5006929;28;20494;-81
2021/09/27 06:42:43;;;;;;;13.90;12.47;;;16.20;70.00;;;;;;5011230;28;20471;-83
2021/09/27 06:45:10;;;;;;;14.87;13.57;;;16.30;69.60;;;;;;5007839;28;20425;-83
2021/09/27 06:47:36;;;;;;;14.30;12.97;;;16.30;69.20;;;;;;5008811;28;20522;-84
2021/09/27 06:50:04;;;;;;;13.00;11.90;;;16.40;69.30;;;;;;5009509;28;20452;-84
2021/09/27 06:52:30;;;;;;;13.53;12.43;;;16.40;69.30;;;;;;5009936;28;20439;-84
2021/09/27 06:54:56;;;;;;;14.73;13.43;;;16.40;69.80;;;;;;5010379;28;20420;-84
2021/09/27 06:57:21;;;;;;;13.50;12.30;;;16.40;69.90;;;;;;5010192;28;20177;-85
2021/09/27 06:59:47;;;;;;;14.43;13.13;;;16.50;69.70;;;;;;5012877;28;20182;-84
2021/09/27 07:02:12;;;;;;;13.80;12.50;;;16.50;69.00;;;;;;5017197;28;20226;-84
2021/09/27 07:04:38;;;;;;;12.20;11.10;;;16.60;68.60;;;;;;5012585;28;20184;-84
2021/09/27 07:07:05;;;;;;;12.40;11.30;;;16.60;69.20;;;;;;5013890;28;20184;-84
2021/09/27 07:09:30;;;;;;;13.40;12.13;;;16.60;68.90;;;;;;5013616;28;20423;-84
2021/09/27 07:11:56;;;;;;;10.77;9.77;;;16.60;68.30;;;;;;5013593;28;20420;-84
2021/09/27 07:14:21;;;;;;;12.47;11.37;;;16.70;68.60;;;;;;5013435;28;20196;-84
2021/09/27 07:16:47;;;;;;;10.90;9.80;;;16.70;68.60;;;;;;5014348;28;20642;-84
2021/09/27 07:19:13;;;;;;;12.10;11.10;;;16.70;67.90;;;;;;5020076;28;20649;-83
2021/09/27 07:21:42;;;;;;;11.83;10.70;;;16.70;67.60;;;;;;5011918;28;20209;-84
2021/09/27 07:24:08;;;;;;;12.63;11.53;;;16.80;67.20;;;;;;5010119;28;20447;-84
2021/09/27 07:26:34;;;;;;;21.20;19.20;;;16.80;67.60;;;;;;5014006;28;20827;-84
2021/09/27 07:29:02;;;;;;;15.27;13.77;;;16.90;67.70;;;;;;5013567;28;20432;-84
2021/09/27 07:31:30;;;;;;;14.57;13.27;;;16.90;67.70;;;;;;5017584;28;20904;-84
2021/09/27 07:33:58;;;;;;;13.17;11.87;;;16.90;67.20;;;;;;5012504;28;20456;-84
2021/09/27 07:36:25;;;;;;;11.17;10.17;;;17.00;66.60;;;;;;5012870;28;20542;-84
2021/09/27 07:38:51;;;;;;;13.37;12.17;;;17.00;66.30;;;;;;5011128;28;20421;-84
2021/09/27 07:41:17;;;;;;;13.80;12.60;;;17.10;66.50;;;;;;5009970;28;20991;-84
2021/09/27 07:43:43;;;;;;;12.60;11.40;;;17.10;66.20;;;;;;5013311;28;20180;-84
2021/09/27 07:46:08;;;;;;;10.60;9.70;;;17.20;65.40;;;;;;5018155;28;20423;-83
2021/09/27 07:48:34;;;;;;;10.70;9.70;;;17.20;65.10;;;;;;5013507;28;20188;-84
2021/09/27 07:51:00;;;;;;;13.17;11.10;;;17.20;65.00;;;;;;5016350;28;20191;-84
2021/09/27 07:53:26;;;;;;;11.40;10.47;;;17.20;65.30;;;;;;5012859;28;20202;-84
2021/09/27 07:55:52;;;;;;;10.90;9.90;;;17.30;64.80;;;;;;5013145;28;20433;-84
2021/09/27 07:58:19;;;;;;;9.57;8.67;;;17.40;64.20;;;;;;5009573;28;20959;-84
2021/09/27 08:00:47;;;;;;;9.70;8.90;;;17.40;63.70;;;;;;5012457;28;20455;-84
2021/09/27 08:03:14;;;;;;;9.63;8.77;;;17.50;63.50;;;;;;5012632;28;20408;-84
2021/09/27 08:05:40;;;;;;;10.70;8.87;;;17.50;63.40;;;;;;5013003;28;20451;-84
2021/09/27 08:08:06;;;;;;;9.07;8.33;;;17.60;63.00;;;;;;5012437;28;20413;-85
2021/09/27 08:10:34;;;;;;;8.17;7.60;;;17.60;63.00;;;;;;5011315;28;20424;-84
2021/09/27 08:12:59;;;;;;;7.83;7.20;;;17.60;61.80;;;;;;5000397;28;20980;-84
2021/09/27 08:15:29;;;;;;;8.43;7.73;;;17.70;60.30;;;;;;4992637;28;20413;-84
2021/09/27 08:17:56;;;;;;;8.90;8.20;;;17.80;59.40;;;;;;4992613;28;20345;-84
2021/09/27 08:20:32;;;;;;;7.20;6.60;;;17.80;59.80;;;;;;4993291;28;20467;-84
2021/09/27 08:22:59;;;;;;;7.80;7.10;;;17.80;59.10;;;;;;5007315;28;20472;-85
2021/09/27 08:25:25;;;;;;;7.77;7.17;;;17.90;58.30;;;;;;5012578;28;20554;-86
2021/09/27 08:27:53;;;;;;;8.53;7.83;;;18.00;57.80;;;;;;5015344;28;20424;-85
2021/09/27 08:30:23;;;;;;;8.30;7.40;;;18.00;57.50;;;;;;5011374;28;20425;-85
2021/09/27 08:32:49;;;;;;;8.93;8.20;;;18.00;58.40;;;;;;5012682;28;20420;-84
2021/09/27 08:35:16;;;;;;;9.63;8.63;;;18.10;58.00;;;;;;5020790;28;20558;-85
2021/09/27 08:37:43;;;;;;;9.23;8.43;;;18.10;58.10;;;;;;5009485;28;20429;-84
2021/09/27 08:40:14;;;;;;;7.97;7.27;;;18.20;56.50;;;;;;4997759;28;20535;-84
2021/09/27 08:42:41;;;;;;;8.07;7.13;;;18.30;56.30;;;;;;5007887;28;20459;-85
2021/09/27 08:45:22;;;;;;;8.73;8.03;;;18.30;57.40;;;;;;5012510;28;20421;-85
2021/09/27 08:48:04;;;;;;;6.80;6.20;;;18.40;56.90;;;;;;5021372;28;20420;-85
2021/09/27 08:50:48;;;;;;;6.67;6.10;;;18.50;55.70;;;;;;5017498;28;20431;-85
2021/09/27 08:53:23;;;;;;;5.90;5.50;;;18.50;55.10;;;;;;5011903;28;20522;-84
2021/09/27 08:55:50;;;;;;;7.00;6.33;;;18.50;54.70;;;;;;5010005;28;20424;-84
2021/09/27 08:58:26;;;;;;;6.70;6.17;;;18.60;53.50;;;;;;5020452;28;20461;-84
2021/09/27 09:00:59;;;;;;;23.23;20.47;;;18.70;52.10;;;;;;5011732;28;20807;-82
2021/09/27 09:03:43;;;;;;;8.70;6.30;;;18.70;52.30;;;;;;5011278;28;20417;-80
2021/09/27 09:06:13;;;;;;;5.63;5.13;;;18.80;52.60;;;;;;5011647;28;20761;-80
2021/09/27 09:08:46;;;;;;;4.70;4.40;;;18.90;51.30;;;;;;5012654;28;20757;-80
2021/09/27 09:11:21;;;;;;;5.20;4.80;;;18.90;51.10;;;;;;5011448;28;20780;-81
2021/09/27 09:13:54;;;;;;;5.97;4.97;;;18.90;51.00;;;;;;5011465;28;20419;-81
2021/09/27 09:16:24;;;;;;;5.50;5.00;;;18.90;51.00;;;;;;5013189;28;20427;-81
2021/09/27 09:18:56;;;;;;;4.90;4.60;;;19.00;49.50;;;;;;5012437;28;20512;-81
2021/09/27 09:21:34;;;;;;;5.60;5.10;;;19.00;50.50;;;;;;5010711;28;20460;-81
2021/09/27 09:24:06;;;;;;;5.73;4.87;;;19.10;49.90;;;;;;5011090;28;20523;-81
2021/09/27 09:26:40;;;;;;;5.10;4.77;;;19.20;49.90;;;;;;5011258;28;20538;-81
2021/09/27 09:29:07;;;;;;;5.47;5.17;;;19.30;49.80;;;;;;5011273;28;20466;-81
2021/09/27 09:31:43;;;;;;;4.90;4.60;;;19.40;48.80;;;;;;5010927;28;20511;-81
2021/09/27 09:34:17;;;;;;;5.20;4.70;;;19.40;49.40;;;;;;5010969;28;20430;-80
2021/09/27 09:36:44;;;;;;;5.68;5.28;;;19.50;49.10;;;;;;5009419;28;20418;-80
2021/09/27 09:39:32;;;;;;;6.37;5.73;;;19.50;49.10;;;;;;5010803;28;20227;-82
2021/09/27 09:42:01;;;;;;;4.77;4.47;;;19.60;49.20;;;;;;5011210;28;20518;-81
2021/09/27 09:44:33;;;;;;;4.97;4.60;;;19.70;48.80;;;;;;5011052;28;20487;-82
2021/09/27 09:47:19;;;;;;;4.40;4.00;;;19.70;47.20;;;;;;5010415;28;20778;-82
2021/09/27 09:49:52;;;;;;;4.37;4.07;;;19.80;46.90;;;;;;5011012;28;20786;-81
2021/09/27 09:52:25;;;;;;;4.50;4.10;;;19.90;45.90;;;;;;5011037;28;20436;-81
2021/09/27 09:54:53;;;;;;;4.90;4.57;;;19.90;45.40;;;;;;5010618;28;20463;-81
2021/09/27 09:57:31;;;;;;;5.63;4.53;;;19.90;45.20;;;;;;5010724;28;20424;-81
2021/09/27 10:00:10;;;;;;;4.30;4.00;;;20.00;44.30;;;;;;5011051;28;20424;-81
2021/09/27 10:02:39;;;;;;;4.93;4.50;;;20.10;44.40;;;;;;5010955;28;20463;-81
2021/09/27 10:05:08;;;;;;;4.40;4.10;;;20.20;44.30;;;;;;5011252;28;20420;-82
2021/09/27 10:07:54;;;;;;;4.97;4.60;;;20.20;44.40;;;;;;5006269;28;20456;-81
2021/09/27 10:10:35;;;;;;;5.30;4.80;;;20.30;45.70;;;;;;5022463;28;20582;-81
2021/09/27 10:13:04;;;;;;;4.80;4.50;;;20.50;46.20;;;;;;5014586;28;20424;-82
2021/09/27 10:15:33;;;;;;;3.63;3.43;;;20.70;44.50;;;;;;5009105;28;20796;-82
2021/09/27 10:18:04;;;;;;;4.40;4.10;;;20.80;44.10;;;;;;5010490;28;20782;-82
2021/09/27 10:20:54;;;;;;;4.23;3.93;;;20.90;43.20;;;;;;5010514;28;20816;-81
2021/09/27 10:23:30;;;;;;;5.20;4.90;;;21.10;41.70;;;;;;5012186;28;20511;-79
2021/09/27 10:26:18;;;;;;;4.50;4.20;;;21.20;41.70;;;;;;5010711;28;20440;-82
2021/09/27 10:28:44;;;;;;;4.50;4.10;;;21.20;42.30;;;;;;5010312;28;20447;-82
2021/09/27 10:31:11;;;;;;;4.30;4.00;;;21.20;41.40;;;;;;5003283;28;20421;-81
2021/09/27 10:33:42;;;;;;;11.10;8.60;;;21.10;41.20;;;;;;4993738;28;20428;-80
2021/09/27 10:36:18;;;;;;;7.20;6.60;;;21.20;40.30;;;;;;4994438;28;20418;-81
2021/09/27 10:38:52;;;;;;;4.20;3.90;;;21.30;40.60;;;;;;5008134;28;20423;-81
2021/09/27 10:41:24;;;;;;;5.67;4.83;;;21.30;41.50;;;;;;5014016;28;20808;-80
2021/09/27 10:43:54;;;;;;;4.10;3.23;;;21.10;39.00;;;;;;5014510;28;20420;-80
2021/09/27 10:46:27;;;;;;;7.43;6.73;;;21.20;38.20;;;;;;5014003;28;20896;-81
2021/09/27 10:48:54;;;;;;;4.33;4.03;;;21.30;40.10;;;;;;5015516;28;20774;-81
2021/09/27 10:51:26;;;;;;;5.83;5.33;;;21.30;38.80;;;;;;5014062;28;20416;-81
2021/09/27 10:53:56;;;;;;;5.17;4.77;;;21.40;38.60;;;;;;5013652;28;20420;-79
2021/09/27 10:56:33;;;;;;;4.40;4.00;;;21.40;38.60;;;;;;5030181;28;20468;-79
2021/09/27 10:59:13;;;;;;;5.03;4.50;;;21.30;38.60;;;;;;5013903;28;20412;-80
2021/09/27 11:01:45;;;;;;;6.40;5.80;;;21.30;37.60;;;;;;5013735;28;20551;-80
2021/09/27 11:04:21;;;;;;;4.97;4.57;;;21.30;40.20;;;;;;5030152;28;20412;-80
2021/09/27 11:06:55;;;;;;;5.07;4.63;;;21.40;37.80;;;;;;5013677;28;20416;-80
2021/09/27 11:09:29;;;;;;;4.83;4.53;;;21.40;38.20;;;;;;5013641;28;20431;-80
2021/09/27 11:12:06;;;;;;;5.17;3.97;;;21.40;39.20;;;;;;5030275;28;20788;-80
2021/09/27 11:14:35;;;;;;;3.70;3.50;;;21.40;38.20;;;;;;5013236;28;20420;-80
2021/09/27 11:17:13;;;;;;;3.70;3.50;;;21.30;39.20;;;;;;5029997;28;20412;-80
2021/09/27 11:19:41;;;;;;;4.00;3.70;;;21.30;38.00;;;;;;5013933;28;20422;-80
2021/09/27 11:22:13;;;;;;;3.40;3.10;;;21.30;37.10;;;;;;5013331;28;20492;-79
2021/09/27 11:24:45;;;;;;;3.37;3.17;;;21.20;36.20;;;;;;5029946;28;20419;-81
2021/09/27 11:27:16;;;;;;;3.43;3.10;;;21.20;36.80;;;;;;5030189;28;20417;-80
2021/09/27 11:29:47;;;;;;;4.43;4.13;;;21.20;37.00;;;;;;5030053;28;20518;-79
2021/09/27 11:32:37;;;;;;;3.90;3.60;;;21.20;37.40;;;;;;5030244;28;20424;-80
2021/09/27 11:35:11;;;;;;;3.90;3.60;;;21.30;37.50;;;;;;5030006;28;20417;-80
2021/09/27 11:37:43;;;;;;;3.60;3.40;;;21.30;37.60;;;;;;5013044;28;20775;-80
2021/09/27 11:40:11;;;;;;;4.23;3.93;;;21.40;37.50;;;;;;5029801;28;20495;-80
2021/09/27 11:42:43;;;;;;;5.10;4.70;;;21.50;38.20;;;;;;5029890;28;20507;-80
2021/09/27 11:45:38;;;;;;;4.67;4.37;;;21.50;38.00;;;;;;5029457;28;20920;-80
2021/09/27 11:48:40;;;;;;;4.33;4.00;;;21.50;37.70;;;;;;5014038;28;20421;-80
2021/09/27 11:51:09;;;;;;;5.13;4.50;;;21.60;38.70;;;;;;5029891;28;20478;-80
2021/09/27 11:54:02;;;;;;;4.80;4.50;;;21.60;38.70;;;;;;5029406;28;20447;-80
2021/09/27 11:56:54;;;;;;;4.47;4.07;;;21.60;37.10;;;;;;5012920;28;20427;-79
2021/09/27 11:59:46;;;;;;;5.00;4.60;;;21.60;38.00;;;;;;5029220;28;20936;-79
2021/09/27 12:02:31;;;;;;;4.30;3.17;;;21.60;38.20;;;;;;5011929;28;20456;-80
2021/09/27 12:05:21;;;;;;;3.33;3.10;;;21.50;38.00;;;;;;5012823;28;20423;-79
2021/09/27 12:08:31;;;;;;;3.80;3.43;;;21.50;38.00;;;;;;5029030;28;20466;-80
2021/09/27 12:11:09;;;;;;;4.43;4.10;;;21.40;38.20;;;;;;5011905;28;20447;-79
2021/09/27 12:13:37;;;;;;;4.27;3.93;;;21.50;38.20;;;;;;5012990;28;20507;-79
2021/09/27 12:16:05;;;;;;;4.17;3.87;;;21.60;38.40;;;;;;5028815;28;20991;-79
2021/09/27 12:18:39;;;;;;;3.90;3.70;;;21.60;38.50;;;;;;5012823;28;20427;-79
2021/09/27 12:21:15;;;;;;;4.50;4.20;;;21.60;38.70;;;;;;5012250;28;20460;-79
2021/09/27 12:23:52;;;;;;;3.03;2.83;;;21.70;39.10;;;;;;5009494;28;20425;-79
2021/09/27 12:26:25;;;;;;;4.90;4.40;;;21.80;37.00;;;;;;4992864;28;20409;-80
2021/09/27 12:29:05;;;;;;;3.73;3.43;;;21.70;39.20;;;;;;4992304;28;20456;-80
2021/09/27 12:31:31;;;;;;;3.50;3.30;;;21.70;37.70;;;;;;4992569;28;20857;-80
2021/09/27 12:34:09;;;;;;;3.30;3.10;;;21.80;36.90;;;;;;5000024;28;20507;-80
2021/09/27 12:36:37;;;;;;;3.30;3.00;;;21.70;35.10;;;;;;5012057;28;20166;-80
2021/09/27 12:39:05;;;;;;;3.63;3.20;;;21.70;35.60;;;;;;5012180;28;20435;-80
2021/09/27 12:41:32;;;;;;;3.60;3.40;;;21.70;36.10;;;;;;5012172;28;20915;-81
2021/09/27 12:44:12;;;;;;;3.60;3.30;;;21.70;37.20;;;;;;5011793;28;20419;-80
2021/09/27 12:46:39;;;;;;;3.57;3.27;;;21.80;37.20;;;;;;5011936;28;20420;-80
2021/09/27 12:49:09;;;;;;;3.30;3.10;;;21.80;37.40;;;;;;5012000;28;20419;-80
2021/09/27 12:51:40;;;;;;;3.40;3.10;;;21.80;37.60;;;;;;5028033;28;20431;-81
2021/09/27 12:54:53;;;;;;;3.10;2.70;;;21.90;37.00;;;;;;5028410;28;20455;-81
2021/09/27 12:57:26;;;;;;;3.13;2.90;;;21.80;35.80;;;;;;4989519;28;20484;-79
2021/09/27 12:59:57;;;;;;;4.20;3.53;;;21.80;35.90;;;;;;4974167;28;20511;-79
2021/09/27 13:02:35;;;;;;;5.37;4.97;;;21.80;36.80;;;;;;4996114;28;20482;-80
2021/09/27 13:05:03;;;;;;;4.03;3.73;;;21.70;36.80;;;;;;5011444;28;20474;-79
2021/09/27 13:07:39;;;;;;;3.70;3.40;;;21.80;38.00;;;;;;5011391;28;20455;-79
2021/09/27 13:10:29;;;;;;;3.57;3.37;;;21.80;38.70;;;;;;5011812;28;20511;-81
2021/09/27 13:13:07;;;;;;;3.67;3.37;;;21.60;39.40;;;;;;5013088;28;20419;-81
2021/09/27 13:15:43;;;;;;;4.30;3.90;;;21.70;38.60;;;;;;5011587;28;20419;-81
2021/09/27 13:18:36;;;;;;;4.67;4.27;;;21.70;38.40;;;;;;5011575;28;20416;-81
2021/09/27 13:21:27;;;;;;;4.57;4.07;;;21.70;37.90;;;;;;4995757;28;20465;-78
2021/09/27 13:24:03;;;;;;;4.50;4.10;;;21.70;37.40;;;;;;4990711;28;20409;-80